sensor_id;sensor_type;location;lat;lon;timestamp;temperature;humidity
12634;DHT22;6382;48.614;8.880;2023-05-10T00:02:01;14.40;99.90
12634;DHT22;6382;48.614;8.880;2023-05-10T00:04:27;15.80;99.90
12634;DHT22;6382;48.614;8.880;2023-05-10T00:06:54;12.90;99.90
12634;DHT22;6382;48.614;8.880;2023-05-10T00:09:21;12.90;99.90
12634;DHT22;6382;48.614;8.880;2023-05-10T00:11:47;12.90;99.90
12634;DHT22;6382;48.614;8.880;2023-05-10T00:14:14;15.00;99.90
12634;DHT22;6382;48.614;8.880;2023-05-10T00:16:41;14.80;99.90
12634;DHT22;6382;48.614;8.880;2023-05-10T00:19:07;12.90;99.90
12634;DHT22;6382;48.614;8.880;2023-05-10T00:21:34;14.30;99.90
12634;DHT22;6382;48.614;8.880;2023-05-10T00:24:01;14.40;99.90
12634;DHT22;6382;48.614;8.880;2023-05-10T00:26:27;15.60;99.90
12634;DHT22;6382;48.614;8.880;2023-05-10T00:28:54;14.50;99.90
12634;DHT22;6382;48.614;8.880;2023-05-10T00:31:21;13.60;99.90
12634;DHT22;6382;48.614;8.880;2023-05-10T00:33:47;12.70;99.90
12634;DHT22;6382;48.614;8.880;2023-05-10T00:36:14;14.80;99.90
12634;DHT22;6382;48.614;8.880;2023-05-10T00:38:41;12.60;99.90
12634;DHT22;6382;48.614;8.880;2023-05-10T00:41:08;12.50;99.90
12634;DHT22;6382;48.614;8.880;2023-05-10T00:43:34;12.60;99.90
12634;DHT22;6382;48.614;8.880;2023-05-10T00:46:01;12.60;99.90
12634;DHT22;6382;48.614;8.880;2023-05-10T00:48:28;12.60;99.90
12634;DHT22;6382;48.614;8.880;2023-05-10T00:50:55;14.10;99.90
12634;DHT22;6382;48.614;8.880;2023-05-10T00:53:21;12.60;99.90
12634;DHT22;6382;48.614;8.880;2023-05-10T00:55:48;12.60;99.90
12634;DHT22;6382;48.614;8.880;2023-05-10T00:58:15;15.20;99.90
12634;DHT22;6382;48.614;8.880;2023-05-10T01:00:42;12.50;99.90
12634;DHT22;6382;48.614;8.880;2023-05-10T01:03:10;12.90;99.90
12634;DHT22;6382;48.614;8.880;2023-05-10T01:05:38;12.50;99.90
12634;DHT22;6382;48.614;8.880;2023-05-10T01:08:04;13.70;99.90
12634;DHT22;6382;48.614;8.880;2023-05-10T01:10:31;13.00;99.90
12634;DHT22;6382;48.614;8.880;2023-05-10T01:12:58;12.50;99.90
12634;DHT22;6382;48.614;8.880;2023-05-10T01:15:25;12.50;99.90
12634;DHT22;6382;48.614;8.880;2023-05-10T01:17:52;12.60;99.90
12634;DHT22;6382;48.614;8.880;2023-05-10T01:20:20;12.60;99.90
12634;DHT22;6382;48.614;8.880;2023-05-10T01:23:22;13.40;99.90
12634;DHT22;6382;48.614;8.880;2023-05-10T01:25:59;12.50;99.90
12634;DHT22;6382;48.614;8.880;2023-05-10T01:28:57;12.40;99.90
12634;DHT22;6382;48.614;8.880;2023-05-10T01:34:06;12.70;99.90
12634;DHT22;6382;48.614;8.880;2023-05-10T01:39:39;12.30;99.90
12634;DHT22;6382;48.614;8.880;2023-05-10T01:42:10;12.30;99.90
12634;DHT22;6382;48.614;8.880;2023-05-10T01:44:39;12.40;99.90
12634;DHT22;6382;48.614;8.880;2023-05-10T01:49:34;12.30;99.90
12634;DHT22;6382;48.614;8.880;2023-05-10T01:52:08;12.40;99.90
12634;DHT22;6382;48.614;8.880;2023-05-10T01:54:35;12.30;99.90
12634;DHT22;6382;48.614;8.880;2023-05-10T01:57:03;13.90;99.90
12634;DHT22;6382;48.614;8.880;2023-05-10T01:59:33;13.60;99.90
12634;DHT22;6382;48.614;8.880;2023-05-10T02:02:07;12.30;99.90
12634;DHT22;6382;48.614;8.880;2023-05-10T02:04:38;12.30;99.90
12634;DHT22;6382;48.614;8.880;2023-05-10T02:07:06;12.40;99.90
12634;DHT22;6382;48.614;8.880;2023-05-10T02:09:33;12.40;99.90
12634;DHT22;6382;48.614;8.880;2023-05-10T02:12:01;15.20;99.90
12634;DHT22;6382;48.614;8.880;2023-05-10T02:14:32;12.50;99.90
12634;DHT22;6382;48.614;8.880;2023-05-10T02:17:00;12.40;99.90
12634;DHT22;6382;48.614;8.880;2023-05-10T02:19:28;13.60;99.90
12634;DHT22;6382;48.614;8.880;2023-05-10T02:21:55;13.60;99.90
12634;DHT22;6382;48.614;8.880;2023-05-10T02:24:23;12.50;99.90
12634;DHT22;6382;48.614;8.880;2023-05-10T02:26:51;13.60;99.90
12634;DHT22;6382;48.614;8.880;2023-05-10T02:29:20;12.30;99.90
12634;DHT22;6382;48.614;8.880;2023-05-10T02:31:47;12.30;99.90
12634;DHT22;6382;48.614;8.880;2023-05-10T02:34:14;14.10;99.90
12634;DHT22;6382;48.614;8.880;2023-05-10T02:36:41;13.30;99.90
12634;DHT22;6382;48.614;8.880;2023-05-10T02:39:08;12.20;99.90
12634;DHT22;6382;48.614;8.880;2023-05-10T02:41:40;13.10;99.90
12634;DHT22;6382;48.614;8.880;2023-05-10T02:44:07;12.80;99.90
12634;DHT22;6382;48.614;8.880;2023-05-10T02:46:34;12.30;99.90
12634;DHT22;6382;48.614;8.880;2023-05-10T02:49:01;12.30;99.90
12634;DHT22;6382;48.614;8.880;2023-05-10T02:51:30;12.30;99.90
12634;DHT22;6382;48.614;8.880;2023-05-10T02:54:06;12.30;99.90
12634;DHT22;6382;48.614;8.880;2023-05-10T02:56:34;12.30;99.90
12634;DHT22;6382;48.614;8.880;2023-05-10T02:59:02;12.30;99.90
12634;DHT22;6382;48.614;8.880;2023-05-10T03:01:29;12.30;99.90
12634;DHT22;6382;48.614;8.880;2023-05-10T03:03:55;13.00;99.90
12634;DHT22;6382;48.614;8.880;2023-05-10T03:06:22;12.30;99.90
12634;DHT22;6382;48.614;8.880;2023-05-10T03:08:49;12.50;99.90
12634;DHT22;6382;48.614;8.880;2023-05-10T03:11:23;13.50;99.90
12634;DHT22;6382;48.614;8.880;2023-05-10T03:14:00;13.50;99.90
12634;DHT22;6382;48.614;8.880;2023-05-10T03:16:30;12.30;99.90
12634;DHT22;6382;48.614;8.880;2023-05-10T03:21:38;12.30;99.90
12634;DHT22;6382;48.614;8.880;2023-05-10T03:24:07;14.40;99.90
12634;DHT22;6382;48.614;8.880;2023-05-10T03:26:34;12.20;99.90
12634;DHT22;6382;48.614;8.880;2023-05-10T03:29:01;12.20;99.90
12634;DHT22;6382;48.614;8.880;2023-05-10T03:31:28;14.40;99.90
12634;DHT22;6382;48.614;8.880;2023-05-10T03:33:55;13.50;99.90
12634;DHT22;6382;48.614;8.880;2023-05-10T03:36:22;12.10;99.90
12634;DHT22;6382;48.614;8.880;2023-05-10T03:38:48;14.70;99.90
12634;DHT22;6382;48.614;8.880;2023-05-10T03:41:15;14.00;99.90
12634;DHT22;6382;48.614;8.880;2023-05-10T03:43:42;12.10;99.90
12634;DHT22;6382;48.614;8.880;2023-05-10T03:46:09;11.90;99.90
12634;DHT22;6382;48.614;8.880;2023-05-10T03:48:36;13.80;99.90
12634;DHT22;6382;48.614;8.880;2023-05-10T03:51:02;12.10;99.90
12634;DHT22;6382;48.614;8.880;2023-05-10T03:53:29;12.00;99.90
12634;DHT22;6382;48.614;8.880;2023-05-10T03:55:56;12.00;99.90
12634;DHT22;6382;48.614;8.880;2023-05-10T03:58:23;12.10;99.90
12634;DHT22;6382;48.614;8.880;2023-05-10T04:00:50;13.70;99.90
12634;DHT22;6382;48.614;8.880;2023-05-10T04:03:17;15.10;99.90
12634;DHT22;6382;48.614;8.880;2023-05-10T04:05:44;13.20;99.90
12634;DHT22;6382;48.614;8.880;2023-05-10T04:08:11;13.20;99.90
12634;DHT22;6382;48.614;8.880;2023-05-10T04:10:37;12.00;99.90
12634;DHT22;6382;48.614;8.880;2023-05-10T04:13:04;13.30;99.90
12634;DHT22;6382;48.614;8.880;2023-05-10T04:15:31;12.90;99.90
12634;DHT22;6382;48.614;8.880;2023-05-10T04:17:58;12.10;99.90
12634;DHT22;6382;48.614;8.880;2023-05-10T04:20:25;12.20;99.90
12634;DHT22;6382;48.614;8.880;2023-05-10T04:22:52;12.40;99.90
12634;DHT22;6382;48.614;8.880;2023-05-10T04:25:18;15.20;99.90
12634;DHT22;6382;48.614;8.880;2023-05-10T04:27:46;12.20;99.90
12634;DHT22;6382;48.614;8.880;2023-05-10T04:30:12;12.30;99.90
12634;DHT22;6382;48.614;8.880;2023-05-10T04:32:39;12.20;99.90
12634;DHT22;6382;48.614;8.880;2023-05-10T04:35:06;12.30;99.90
12634;DHT22;6382;48.614;8.880;2023-05-10T04:37:33;12.30;99.90
12634;DHT22;6382;48.614;8.880;2023-05-10T04:40:00;13.60;99.90
12634;DHT22;6382;48.614;8.880;2023-05-10T04:42:27;12.20;99.90
12634;DHT22;6382;48.614;8.880;2023-05-10T04:44:53;12.20;99.90
12634;DHT22;6382;48.614;8.880;2023-05-10T04:47:20;12.30;99.90
12634;DHT22;6382;48.614;8.880;2023-05-10T04:49:47;12.20;99.90
12634;DHT22;6382;48.614;8.880;2023-05-10T04:52:13;12.20;99.90
12634;DHT22;6382;48.614;8.880;2023-05-10T04:54:41;12.20;99.90
12634;DHT22;6382;48.614;8.880;2023-05-10T04:57:08;12.20;99.90
12634;DHT22;6382;48.614;8.880;2023-05-10T04:59:35;13.80;99.90
12634;DHT22;6382;48.614;8.880;2023-05-10T05:02:02;14.80;99.90
12634;DHT22;6382;48.614;8.880;2023-05-10T05:04:30;12.30;99.90
12634;DHT22;6382;48.614;8.880;2023-05-10T05:06:57;12.30;99.90
12634;DHT22;6382;48.614;8.880;2023-05-10T05:09:24;13.50;99.90
12634;DHT22;6382;48.614;8.880;2023-05-10T05:11:51;13.90;99.90
12634;DHT22;6382;48.614;8.880;2023-05-10T05:14:17;12.30;99.90
12634;DHT22;6382;48.614;8.880;2023-05-10T05:16:44;13.50;99.90
12634;DHT22;6382;48.614;8.880;2023-05-10T05:19:11;12.80;99.90
12634;DHT22;6382;48.614;8.880;2023-05-10T05:21:38;12.40;99.90
12634;DHT22;6382;48.614;8.880;2023-05-10T05:24:05;14.60;99.90
12634;DHT22;6382;48.614;8.880;2023-05-10T05:26:32;12.50;99.90
12634;DHT22;6382;48.614;8.880;2023-05-10T05:28:59;12.50;99.90
12634;DHT22;6382;48.614;8.880;2023-05-10T05:31:25;13.60;99.90
12634;DHT22;6382;48.614;8.880;2023-05-10T05:33:52;14.20;99.90
12634;DHT22;6382;48.614;8.880;2023-05-10T05:36:19;14.60;99.90
12634;DHT22;6382;48.614;8.880;2023-05-10T05:38:45;12.70;99.90
12634;DHT22;6382;48.614;8.880;2023-05-10T05:41:12;12.70;99.90
12634;DHT22;6382;48.614;8.880;2023-05-10T05:43:39;12.70;99.90
12634;DHT22;6382;48.614;8.880;2023-05-10T05:46:05;12.70;99.90
12634;DHT22;6382;48.614;8.880;2023-05-10T05:48:32;13.00;99.90
12634;DHT22;6382;48.614;8.880;2023-05-10T05:50:59;14.70;99.90
12634;DHT22;6382;48.614;8.880;2023-05-10T05:53:26;13.00;99.90
12634;DHT22;6382;48.614;8.880;2023-05-10T05:58:21;12.80;99.90
12634;DHT22;6382;48.614;8.880;2023-05-10T06:00:48;14.30;99.90
12634;DHT22;6382;48.614;8.880;2023-05-10T06:03:15;12.80;99.90
12634;DHT22;6382;48.614;8.880;2023-05-10T06:05:42;12.90;99.90
12634;DHT22;6382;48.614;8.880;2023-05-10T06:08:09;15.30;99.90
12634;DHT22;6382;48.614;8.880;2023-05-10T06:10:36;15.60;99.90
12634;DHT22;6382;48.614;8.880;2023-05-10T06:13:03;12.80;99.90
12634;DHT22;6382;48.614;8.880;2023-05-10T06:15:29;15.00;99.90
12634;DHT22;6382;48.614;8.880;2023-05-10T06:17:56;13.20;99.90
12634;DHT22;6382;48.614;8.880;2023-05-10T06:20:23;14.40;99.90
12634;DHT22;6382;48.614;8.880;2023-05-10T06:22:49;13.20;99.90
12634;DHT22;6382;48.614;8.880;2023-05-10T06:25:16;13.30;99.90
12634;DHT22;6382;48.614;8.880;2023-05-10T06:27:44;14.80;99.90
12634;DHT22;6382;48.614;8.880;2023-05-10T06:30:17;13.80;99.90
12634;DHT22;6382;48.614;8.880;2023-05-10T06:32:44;13.50;99.90
12634;DHT22;6382;48.614;8.880;2023-05-10T06:35:11;13.60;99.90
12634;DHT22;6382;48.614;8.880;2023-05-10T06:37:38;13.70;99.90
12634;DHT22;6382;48.614;8.880;2023-05-10T06:40:05;13.60;99.90
12634;DHT22;6382;48.614;8.880;2023-05-10T06:42:32;13.70;99.90
12634;DHT22;6382;48.614;8.880;2023-05-10T06:44:59;14.40;99.90
12634;DHT22;6382;48.614;8.880;2023-05-10T06:47:26;13.80;99.90
12634;DHT22;6382;48.614;8.880;2023-05-10T06:49:52;13.80;99.90
12634;DHT22;6382;48.614;8.880;2023-05-10T06:52:20;13.80;99.90
12634;DHT22;6382;48.614;8.880;2023-05-10T06:54:46;14.10;99.90
12634;DHT22;6382;48.614;8.880;2023-05-10T06:57:13;15.50;99.90
12634;DHT22;6382;48.614;8.880;2023-05-10T06:59:56;13.90;99.90
12634;DHT22;6382;48.614;8.880;2023-05-10T07:02:23;13.90;99.90
12634;DHT22;6382;48.614;8.880;2023-05-10T07:04:50;13.90;99.90
12634;DHT22;6382;48.614;8.880;2023-05-10T07:07:18;14.60;99.90
12634;DHT22;6382;48.614;8.880;2023-05-10T07:09:45;14.00;99.90
12634;DHT22;6382;48.614;8.880;2023-05-10T07:12:12;13.80;99.90
12634;DHT22;6382;48.614;8.880;2023-05-10T07:14:41;13.20;99.90
12634;DHT22;6382;48.614;8.880;2023-05-10T07:17:08;15.20;99.90
12634;DHT22;6382;48.614;8.880;2023-05-10T07:19:35;13.90;99.90
12634;DHT22;6382;48.614;8.880;2023-05-10T07:22:02;13.80;99.90
12634;DHT22;6382;48.614;8.880;2023-05-10T07:24:29;15.00;99.90
12634;DHT22;6382;48.614;8.880;2023-05-10T07:26:57;14.20;99.90
12634;DHT22;6382;48.614;8.880;2023-05-10T07:29:24;15.20;99.90
12634;DHT22;6382;48.614;8.880;2023-05-10T07:31:51;13.80;99.90
12634;DHT22;6382;48.614;8.880;2023-05-10T07:34:18;14.80;99.90
12634;DHT22;6382;48.614;8.880;2023-05-10T07:36:45;13.80;99.90
12634;DHT22;6382;48.614;8.880;2023-05-10T07:39:12;15.60;99.90
12634;DHT22;6382;48.614;8.880;2023-05-10T07:41:50;13.90;99.90
12634;DHT22;6382;48.614;8.880;2023-05-10T07:44:16;13.90;99.90
12634;DHT22;6382;48.614;8.880;2023-05-10T07:46:46;13.90;99.90
12634;DHT22;6382;48.614;8.880;2023-05-10T07:49:12;14.10;99.90
12634;DHT22;6382;48.614;8.880;2023-05-10T07:51:39;14.10;99.90
12634;DHT22;6382;48.614;8.880;2023-05-10T07:54:06;14.30;99.90
12634;DHT22;6382;48.614;8.880;2023-05-10T07:56:33;14.30;99.90
12634;DHT22;6382;48.614;8.880;2023-05-10T07:59:02;14.30;99.90
12634;DHT22;6382;48.614;8.880;2023-05-10T08:01:30;14.40;99.90
12634;DHT22;6382;48.614;8.880;2023-05-10T08:03:57;14.40;99.90
12634;DHT22;6382;48.614;8.880;2023-05-10T08:06:24;14.50;99.90
12634;DHT22;6382;48.614;8.880;2023-05-10T08:08:53;14.50;99.90
12634;DHT22;6382;48.614;8.880;2023-05-10T08:11:20;14.80;99.90
12634;DHT22;6382;48.614;8.880;2023-05-10T08:13:48;16.20;99.90
12634;DHT22;6382;48.614;8.880;2023-05-10T08:16:15;15.70;99.90
12634;DHT22;6382;48.614;8.880;2023-05-10T08:18:42;14.90;99.90
12634;DHT22;6382;48.614;8.880;2023-05-10T08:21:09;16.60;99.90
12634;DHT22;6382;48.614;8.880;2023-05-10T08:23:37;15.60;99.90
12634;DHT22;6382;48.614;8.880;2023-05-10T08:26:04;15.10;99.90
12634;DHT22;6382;48.614;8.880;2023-05-10T08:28:31;15.10;99.90
12634;DHT22;6382;48.614;8.880;2023-05-10T08:30:57;16.80;99.90
12634;DHT22;6382;48.614;8.880;2023-05-10T08:33:24;16.60;99.90
12634;DHT22;6382;48.614;8.880;2023-05-10T08:35:51;15.20;99.90
12634;DHT22;6382;48.614;8.880;2023-05-10T08:38:18;15.20;99.90
12634;DHT22;6382;48.614;8.880;2023-05-10T08:40:45;15.90;99.90
12634;DHT22;6382;48.614;8.880;2023-05-10T08:43:12;15.90;99.90
12634;DHT22;6382;48.614;8.880;2023-05-10T08:45:41;17.40;99.90
12634;DHT22;6382;48.614;8.880;2023-05-10T08:48:09;15.80;99.90
12634;DHT22;6382;48.614;8.880;2023-05-10T08:50:37;17.60;99.90
12634;DHT22;6382;48.614;8.880;2023-05-10T08:53:05;17.00;99.90
12634;DHT22;6382;48.614;8.880;2023-05-10T08:55:33;15.60;99.90
12634;DHT22;6382;48.614;8.880;2023-05-10T08:58:00;15.70;99.90
12634;DHT22;6382;48.614;8.880;2023-05-10T09:00:26;16.30;99.90
12634;DHT22;6382;48.614;8.880;2023-05-10T09:02:54;18.50;99.90
12634;DHT22;6382;48.614;8.880;2023-05-10T09:05:21;15.60;99.90
12634;DHT22;6382;48.614;8.880;2023-05-10T09:07:48;17.30;99.90
12634;DHT22;6382;48.614;8.880;2023-05-10T09:10:14;18.50;99.90
12634;DHT22;6382;48.614;8.880;2023-05-10T09:12:41;15.80;99.90
12634;DHT22;6382;48.614;8.880;2023-05-10T09:15:10;16.10;99.90
12634;DHT22;6382;48.614;8.880;2023-05-10T09:17:40;17.00;99.90
12634;DHT22;6382;48.614;8.880;2023-05-10T09:20:07;17.60;99.90
12634;DHT22;6382;48.614;8.880;2023-05-10T09:22:34;15.60;99.90
12634;DHT22;6382;48.614;8.880;2023-05-10T09:25:05;15.40;99.90
12634;DHT22;6382;48.614;8.880;2023-05-10T09:27:32;15.40;99.90
12634;DHT22;6382;48.614;8.880;2023-05-10T09:29:59;15.70;99.90
12634;DHT22;6382;48.614;8.880;2023-05-10T09:32:39;17.40;99.90
12634;DHT22;6382;48.614;8.880;2023-05-10T09:35:07;15.50;99.90
12634;DHT22;6382;48.614;8.880;2023-05-10T09:37:34;15.70;99.90
12634;DHT22;6382;48.614;8.880;2023-05-10T09:40:03;17.20;99.90
12634;DHT22;6382;48.614;8.880;2023-05-10T09:42:30;16.00;99.90
12634;DHT22;6382;48.614;8.880;2023-05-10T09:45:01;15.70;99.90
12634;DHT22;6382;48.614;8.880;2023-05-10T09:47:28;15.70;99.90
12634;DHT22;6382;48.614;8.880;2023-05-10T09:49:56;16.60;99.90
12634;DHT22;6382;48.614;8.880;2023-05-10T09:55:37;15.60;99.90
12634;DHT22;6382;48.614;8.880;2023-05-10T09:58:04;16.50;99.90
12634;DHT22;6382;48.614;8.880;2023-05-10T10:00:36;15.60;99.90
12634;DHT22;6382;48.614;8.880;2023-05-10T10:03:04;16.00;99.90
12634;DHT22;6382;48.614;8.880;2023-05-10T10:05:35;16.80;99.90
12634;DHT22;6382;48.614;8.880;2023-05-10T10:08:03;18.60;99.90
12634;DHT22;6382;48.614;8.880;2023-05-10T10:10:31;18.40;99.90
12634;DHT22;6382;48.614;8.880;2023-05-10T10:12:58;17.20;99.90
12634;DHT22;6382;48.614;8.880;2023-05-10T10:15:26;17.60;99.90
12634;DHT22;6382;48.614;8.880;2023-05-10T10:17:53;15.80;99.90
12634;DHT22;6382;48.614;8.880;2023-05-10T10:20:20;16.00;99.90
12634;DHT22;6382;48.614;8.880;2023-05-10T10:22:47;16.10;99.90
12634;DHT22;6382;48.614;8.880;2023-05-10T10:25:15;17.40;99.90
12634;DHT22;6382;48.614;8.880;2023-05-10T10:32:27;15.60;99.90
12634;DHT22;6382;48.614;8.880;2023-05-10T10:34:54;14.70;99.90
12634;DHT22;6382;48.614;8.880;2023-05-10T10:37:21;13.90;99.90
12634;DHT22;6382;48.614;8.880;2023-05-10T10:50:02;12.40;99.90
12634;DHT22;6382;48.614;8.880;2023-05-10T10:52:42;12.30;99.90
12634;DHT22;6382;48.614;8.880;2023-05-10T10:55:13;12.40;99.90
12634;DHT22;6382;48.614;8.880;2023-05-10T11:00:24;12.60;99.90
12634;DHT22;6382;48.614;8.880;2023-05-10T11:02:52;12.70;99.90
12634;DHT22;6382;48.614;8.880;2023-05-10T11:15:50;13.80;99.90
12634;DHT22;6382;48.614;8.880;2023-05-10T11:18:21;13.90;99.90
12634;DHT22;6382;48.614;8.880;2023-05-10T11:20:50;14.00;99.90
12634;DHT22;6382;48.614;8.880;2023-05-10T11:23:17;14.30;99.90
12634;DHT22;6382;48.614;8.880;2023-05-10T11:25:45;14.30;99.90
12634;DHT22;6382;48.614;8.880;2023-05-10T11:28:12;14.50;99.90
12634;DHT22;6382;48.614;8.880;2023-05-10T11:30:39;14.50;99.90
12634;DHT22;6382;48.614;8.880;2023-05-10T11:33:06;14.90;99.90
12634;DHT22;6382;48.614;8.880;2023-05-10T11:35:37;14.90;99.90
12634;DHT22;6382;48.614;8.880;2023-05-10T11:38:09;15.10;99.90
12634;DHT22;6382;48.614;8.880;2023-05-10T11:40:36;15.40;99.90
12634;DHT22;6382;48.614;8.880;2023-05-10T11:43:03;15.60;99.90
12634;DHT22;6382;48.614;8.880;2023-05-10T11:45:33;15.80;99.90
12634;DHT22;6382;48.614;8.880;2023-05-10T11:48:00;15.90;99.90
12634;DHT22;6382;48.614;8.880;2023-05-10T11:50:27;15.90;99.90
12634;DHT22;6382;48.614;8.880;2023-05-10T11:52:57;16.00;99.90
12634;DHT22;6382;48.614;8.880;2023-05-10T11:55:25;15.80;99.90
12634;DHT22;6382;48.614;8.880;2023-05-10T11:57:52;15.80;99.90
12634;DHT22;6382;48.614;8.880;2023-05-10T12:00:19;15.80;99.90
12634;DHT22;6382;48.614;8.880;2023-05-10T12:02:48;15.80;99.90
12634;DHT22;6382;48.614;8.880;2023-05-10T12:05:15;15.70;99.90
12634;DHT22;6382;48.614;8.880;2023-05-10T12:07:42;17.90;99.90
12634;DHT22;6382;48.614;8.880;2023-05-10T12:10:10;15.60;99.90
12634;DHT22;6382;48.614;8.880;2023-05-10T12:15:04;15.30;99.90
12634;DHT22;6382;48.614;8.880;2023-05-10T12:17:31;15.20;99.90
12634;DHT22;6382;48.614;8.880;2023-05-10T12:19:59;15.10;99.90
12634;DHT22;6382;48.614;8.880;2023-05-10T12:22:25;15.40;99.90
12634;DHT22;6382;48.614;8.880;2023-05-10T12:24:52;14.90;99.90
12634;DHT22;6382;48.614;8.880;2023-05-10T12:27:18;18.40;99.90
12634;DHT22;6382;48.614;8.880;2023-05-10T12:29:45;15.50;99.90
12634;DHT22;6382;48.614;8.880;2023-05-10T12:32:12;17.40;99.90
12634;DHT22;6382;48.614;8.880;2023-05-10T12:34:39;14.80;99.90
12634;DHT22;6382;48.614;8.880;2023-05-10T12:37:06;14.80;99.90
12634;DHT22;6382;48.614;8.880;2023-05-10T12:39:39;14.90;99.90
12634;DHT22;6382;48.614;8.880;2023-05-10T12:42:08;14.80;99.90
12634;DHT22;6382;48.614;8.880;2023-05-10T12:44:35;14.80;99.90
12634;DHT22;6382;48.614;8.880;2023-05-10T12:47:02;17.50;99.90
12634;DHT22;6382;48.614;8.880;2023-05-10T12:49:28;14.90;99.90
12634;DHT22;6382;48.614;8.880;2023-05-10T12:51:55;14.90;99.90
12634;DHT22;6382;48.614;8.880;2023-05-10T12:54:22;15.00;99.90
12634;DHT22;6382;48.614;8.880;2023-05-10T12:56:49;15.00;99.90
12634;DHT22;6382;48.614;8.880;2023-05-10T12:59:15;15.20;99.90
12634;DHT22;6382;48.614;8.880;2023-05-10T13:01:42;15.30;99.90
12634;DHT22;6382;48.614;8.880;2023-05-10T13:04:09;15.50;99.90
12634;DHT22;6382;48.614;8.880;2023-05-10T13:06:35;15.60;99.90
12634;DHT22;6382;48.614;8.880;2023-05-10T13:09:02;15.60;99.90
12634;DHT22;6382;48.614;8.880;2023-05-10T13:11:29;15.70;99.90
12634;DHT22;6382;48.614;8.880;2023-05-10T13:13:56;15.60;99.90
12634;DHT22;6382;48.614;8.880;2023-05-10T13:16:23;18.20;99.90
12634;DHT22;6382;48.614;8.880;2023-05-10T13:18:49;15.60;99.90
12634;DHT22;6382;48.614;8.880;2023-05-10T13:21:17;15.60;99.90
12634;DHT22;6382;48.614;8.880;2023-05-10T13:23:43;15.70;99.90
12634;DHT22;6382;48.614;8.880;2023-05-10T13:26:10;15.70;99.90
12634;DHT22;6382;48.614;8.880;2023-05-10T13:28:37;15.70;99.90
12634;DHT22;6382;48.614;8.880;2023-05-10T13:31:05;17.30;99.90
12634;DHT22;6382;48.614;8.880;2023-05-10T13:35:59;15.80;99.90
12634;DHT22;6382;48.614;8.880;2023-05-10T13:38:25;15.80;99.90
12634;DHT22;6382;48.614;8.880;2023-05-10T13:40:52;15.80;99.90
12634;DHT22;6382;48.614;8.880;2023-05-10T13:45:49;16.00;99.90
12634;DHT22;6382;48.614;8.880;2023-05-10T13:48:16;16.50;99.90
12634;DHT22;6382;48.614;8.880;2023-05-10T13:50:43;16.20;99.90
12634;DHT22;6382;48.614;8.880;2023-05-10T13:53:10;16.10;99.90
12634;DHT22;6382;48.614;8.880;2023-05-10T13:55:36;16.10;99.90
12634;DHT22;6382;48.614;8.880;2023-05-10T13:58:03;17.30;99.90
12634;DHT22;6382;48.614;8.880;2023-05-10T14:00:29;16.10;99.90
12634;DHT22;6382;48.614;8.880;2023-05-10T14:02:57;16.90;99.90
12634;DHT22;6382;48.614;8.880;2023-05-10T14:05:24;17.50;99.90
12634;DHT22;6382;48.614;8.880;2023-05-10T14:07:52;16.30;99.90
12634;DHT22;6382;48.614;8.880;2023-05-10T14:10:18;16.40;99.90
12634;DHT22;6382;48.614;8.880;2023-05-10T14:12:45;16.50;99.90
12634;DHT22;6382;48.614;8.880;2023-05-10T14:15:12;16.50;99.90
12634;DHT22;6382;48.614;8.880;2023-05-10T14:17:39;17.10;99.90
12634;DHT22;6382;48.614;8.880;2023-05-10T14:20:06;18.40;99.90
12634;DHT22;6382;48.614;8.880;2023-05-10T14:22:33;16.50;99.90
12634;DHT22;6382;48.614;8.880;2023-05-10T14:25:00;17.00;99.90
12634;DHT22;6382;48.614;8.880;2023-05-10T14:27:27;16.50;99.90
12634;DHT22;6382;48.614;8.880;2023-05-10T14:29:53;17.20;99.90
12634;DHT22;6382;48.614;8.880;2023-05-10T14:32:20;16.50;99.90
12634;DHT22;6382;48.614;8.880;2023-05-10T14:34:47;16.50;99.90
12634;DHT22;6382;48.614;8.880;2023-05-10T14:37:14;17.30;99.90
12634;DHT22;6382;48.614;8.880;2023-05-10T14:39:41;16.60;99.90
12634;DHT22;6382;48.614;8.880;2023-05-10T14:42:09;17.50;99.90
12634;DHT22;6382;48.614;8.880;2023-05-10T14:44:35;16.60;99.90
12634;DHT22;6382;48.614;8.880;2023-05-10T14:47:02;16.40;99.90
12634;DHT22;6382;48.614;8.880;2023-05-10T14:49:29;16.40;99.90
12634;DHT22;6382;48.614;8.880;2023-05-10T14:51:55;16.40;99.90
12634;DHT22;6382;48.614;8.880;2023-05-10T14:54:22;16.50;99.90
12634;DHT22;6382;48.614;8.880;2023-05-10T14:56:49;17.50;99.90
12634;DHT22;6382;48.614;8.880;2023-05-10T14:59:19;15.90;99.90
12634;DHT22;6382;48.614;8.880;2023-05-10T15:01:47;17.50;99.90
12634;DHT22;6382;48.614;8.880;2023-05-10T15:04:14;18.60;99.90
12634;DHT22;6382;48.614;8.880;2023-05-10T15:06:43;16.70;99.90
12634;DHT22;6382;48.614;8.880;2023-05-10T15:09:09;16.80;99.90
12634;DHT22;6382;48.614;8.880;2023-05-10T15:11:36;16.10;99.90
12634;DHT22;6382;48.614;8.880;2023-05-10T15:14:03;16.80;99.90
12634;DHT22;6382;48.614;8.880;2023-05-10T15:16:30;16.80;99.90
12634;DHT22;6382;48.614;8.880;2023-05-10T15:19:01;15.80;99.90
12634;DHT22;6382;48.614;8.880;2023-05-10T15:21:28;15.80;99.90
12634;DHT22;6382;48.614;8.880;2023-05-10T15:23:55;15.90;99.90
12634;DHT22;6382;48.614;8.880;2023-05-10T15:26:21;16.60;99.90
12634;DHT22;6382;48.614;8.880;2023-05-10T15:28:48;16.00;99.90
12634;DHT22;6382;48.614;8.880;2023-05-10T15:31:15;17.90;99.90
12634;DHT22;6382;48.614;8.880;2023-05-10T15:33:41;16.80;99.90
12634;DHT22;6382;48.614;8.880;2023-05-10T15:36:08;16.10;99.90
12634;DHT22;6382;48.614;8.880;2023-05-10T15:38:35;16.20;99.90
12634;DHT22;6382;48.614;8.880;2023-05-10T15:41:03;16.10;99.90
12634;DHT22;6382;48.614;8.880;2023-05-10T15:43:29;16.20;99.90
12634;DHT22;6382;48.614;8.880;2023-05-10T15:45:56;17.20;99.90
12634;DHT22;6382;48.614;8.880;2023-05-10T15:48:23;16.10;99.90
12634;DHT22;6382;48.614;8.880;2023-05-10T15:50:49;16.10;99.90
12634;DHT22;6382;48.614;8.880;2023-05-10T15:53:16;16.60;99.90
12634;DHT22;6382;48.614;8.880;2023-05-10T15:55:43;16.30;99.90
12634;DHT22;6382;48.614;8.880;2023-05-10T15:58:10;16.20;99.90
12634;DHT22;6382;48.614;8.880;2023-05-10T16:00:37;16.00;99.90
12634;DHT22;6382;48.614;8.880;2023-05-10T16:03:04;15.90;99.90
12634;DHT22;6382;48.614;8.880;2023-05-10T16:05:32;16.10;99.90
12634;DHT22;6382;48.614;8.880;2023-05-10T16:07:59;16.40;99.90
12634;DHT22;6382;48.614;8.880;2023-05-10T16:10:26;16.40;99.90
12634;DHT22;6382;48.614;8.880;2023-05-10T16:12:53;17.70;99.90
12634;DHT22;6382;48.614;8.880;2023-05-10T16:15:20;16.40;99.90
12634;DHT22;6382;48.614;8.880;2023-05-10T16:17:48;18.60;99.90
12634;DHT22;6382;48.614;8.880;2023-05-10T16:20:15;15.20;99.90
12634;DHT22;6382;48.614;8.880;2023-05-10T16:22:42;15.00;99.90
12634;DHT22;6382;48.614;8.880;2023-05-10T16:25:10;15.60;99.90
12634;DHT22;6382;48.614;8.880;2023-05-10T16:27:39;16.50;99.90
12634;DHT22;6382;48.614;8.880;2023-05-10T16:30:06;15.10;99.90
12634;DHT22;6382;48.614;8.880;2023-05-10T16:32:33;14.50;99.90
12634;DHT22;6382;48.614;8.880;2023-05-10T16:35:00;15.80;99.90
12634;DHT22;6382;48.614;8.880;2023-05-10T16:37:27;14.30;99.90
12634;DHT22;6382;48.614;8.880;2023-05-10T16:39:54;14.20;99.90